createdAt,value
2022-09-20T00:01:27.533Z,158749.72
2022-09-20T00:03:57.385Z,158740.41
2022-09-20T00:06:32.088Z,158736.41
2022-09-20T00:09:01.424Z,158720.44
2022-09-20T00:11:31.437Z,158717.72
2022-09-20T00:14:01.460Z,158705.78
2022-09-20T00:16:31.745Z,158707.09
2022-09-20T00:19:04.202Z,158712.44
2022-09-20T00:21:33.558Z,158712.44
2022-09-20T00:24:02.219Z,158712.44
2022-09-20T00:26:29.732Z,158672.47
2022-09-20T00:28:58.413Z,158688.44
2022-09-20T00:31:47.323Z,158684.47
2022-09-20T00:34:32.948Z,158675.09
2022-09-20T00:37:00.488Z,158667.13
2022-09-20T00:39:28.093Z,158663.16
2022-09-20T00:41:55.469Z,158673.78
2022-09-20T00:44:42.856Z,158675.09
2022-09-20T00:47:24.629Z,158659.13
2022-09-20T00:49:53.788Z,158641.84
2022-09-20T00:52:21.509Z,158649.81
2022-09-20T00:54:49.322Z,158632.47
2022-09-20T00:57:17.033Z,158627.13
2022-09-20T00:59:45.990Z,158619.16
2022-09-20T01:02:26.906Z,158616.50
2022-09-20T01:04:57.705Z,158617.81
2022-09-20T01:07:25.240Z,158620.47
2022-09-20T01:09:52.707Z,158617.81
2022-09-20T01:12:23.173Z,158620.47
2022-09-20T01:14:51.608Z,158608.53
2022-09-20T01:17:21.028Z,158603.19
2022-09-20T01:20:15.724Z,158601.84
2022-09-20T01:22:45.968Z,158608.53
2022-09-20T01:25:58.180Z,158600.53
2022-09-20T01:28:26.747Z,158584.50
2022-09-20T01:31:07.693Z,158555.22
2022-09-20T01:33:47.155Z,158560.56
2022-09-20T01:36:25.632Z,158548.56
2022-09-20T01:39:21.665Z,158555.22
2022-09-20T01:41:53.175Z,158545.91
2022-09-20T01:44:31.282Z,158556.53
2022-09-20T01:47:10.258Z,158564.59
2022-09-20T01:49:53.385Z,158565.91
2022-09-20T01:52:26.533Z,158575.22
2022-09-20T01:55:12.589Z,158564.59
2022-09-20T01:58:17.693Z,158571.19
2022-09-20T02:01:15.644Z,158587.22
2022-09-20T02:04:04.549Z,158571.19
2022-09-20T02:06:53.978Z,158581.88
2022-09-20T02:09:49.692Z,158595.19
2022-09-20T02:12:48.793Z,158600.53
2022-09-20T02:15:16.344Z,158611.16
2022-09-20T02:18:04.671Z,158621.84
2022-09-20T02:20:54.210Z,158619.16
2022-09-20T02:23:22.731Z,158627.13
2022-09-20T02:25:53.134Z,158640.47
2022-09-20T02:28:38.697Z,158651.16
2022-09-20T02:31:14.100Z,158655.13
2022-09-20T02:33:47.338Z,158661.78
2022-09-20T02:36:42.173Z,158624.50
2022-09-20T02:39:21.432Z,158643.16
2022-09-20T02:42:10.573Z,158645.81
2022-09-20T02:45:04.061Z,158653.78
2022-09-20T02:47:35.770Z,158644.47
2022-09-20T02:50:30.009Z,158656.50
2022-09-20T02:53:24.798Z,158656.50
2022-09-20T02:56:17.821Z,158657.81
2022-09-20T02:59:06.401Z,158673.78
2022-09-20T03:01:55.472Z,158683.09
2022-09-20T03:05:00.964Z,158664.47
2022-09-20T03:07:40.716Z,158657.81
2022-09-20T03:10:40.746Z,158655.13
2022-09-20T03:13:50.491Z,158649.81
2022-09-20T03:16:55.791Z,158652.47
2022-09-20T03:19:41.839Z,158653.78
2022-09-20T03:22:28.071Z,158668.44
2022-09-20T03:25:17.049Z,158668.44
2022-09-20T03:28:21.824Z,158656.50
2022-09-20T03:30:55.043Z,158660.44
2022-09-20T03:34:00.312Z,158664.47
2022-09-20T03:36:44.568Z,158671.13
2022-09-20T03:39:12.207Z,158671.13
2022-09-20T03:42:01.416Z,158672.47
2022-09-20T03:44:47.429Z,158655.13
2022-09-20T03:47:51.985Z,158687.09
2022-09-20T03:50:44.589Z,158685.78
2022-09-20T03:53:30.318Z,158660.44
2022-09-20T03:56:38.730Z,158675.09
2022-09-20T03:59:27.508Z,158664.47
2022-09-20T04:02:13.635Z,158671.13
2022-09-20T04:04:54.211Z,158655.13
2022-09-20T04:07:31.178Z,158661.78
2022-09-20T04:10:24.313Z,158676.44
2022-09-20T04:13:29.389Z,158667.13
2022-09-20T04:16:08.258Z,158677.81
2022-09-20T04:18:41.831Z,158668.44
2022-09-20T04:21:23.908Z,158676.44
2022-09-20T04:23:54.543Z,158680.44
2022-09-20T04:26:45.219Z,158687.09
2022-09-20T04:29:23.173Z,158677.81
2022-09-20T04:35:48.625Z,158665.78
2022-09-20T04:38:21.114Z,158671.13
2022-09-20T04:41:18.894Z,158673.78
2022-09-20T04:44:22.470Z,158669.75
2022-09-20T04:46:55.853Z,158679.13
2022-09-20T04:49:42.058Z,158671.13
2022-09-20T04:52:34.553Z,158681.75
2022-09-20T04:55:08.746Z,158680.44
2022-09-20T04:57:54.891Z,158681.75
2022-09-20T05:00:24.308Z,158679.13
2022-09-20T05:03:16.577Z,158689.75
2022-09-20T05:06:06.201Z,158696.41
2022-09-20T05:08:53.261Z,158657.81
2022-09-20T05:11:30.540Z,158695.09
2022-09-20T05:14:12.729Z,158695.09
2022-09-20T05:17:02.815Z,158699.13
2022-09-20T05:20:02.717Z,158699.13
2022-09-20T05:22:48.864Z,158707.09
2022-09-20T05:25:28.265Z,158711.06
2022-09-20T05:28:33.422Z,158708.41
2022-09-20T05:31:14.200Z,158720.44
2022-09-20T05:34:00.537Z,158724.41
2022-09-20T05:36:39.526Z,158715.09
2022-09-20T05:39:20.634Z,158712.44
2022-09-20T05:42:20.989Z,158731.06
2022-09-20T05:44:57.588Z,158729.75
2022-09-20T05:47:30.815Z,158741.75
2022-09-20T05:50:32.663Z,158733.75
2022-09-20T05:53:37.917Z,158751.06
2022-09-20T05:56:26.713Z,158749.72
2022-09-20T05:59:14.254Z,158781.75
2022-09-20T06:02:20.455Z,158776.41
2022-09-20T06:05:36.148Z,158787.09
2022-09-20T06:08:25.776Z,158797.75
2022-09-20T06:11:04.458Z,158789.78
2022-09-20T06:13:59.971Z,158800.41
2022-09-20T06:16:53.578Z,158792.41
2022-09-20T06:19:26.880Z,158811.09
2022-09-20T06:21:55.469Z,158835.06
2022-09-20T06:24:49.881Z,158835.06
2022-09-20T06:27:34.313Z,158824.38
2022-09-20T06:30:08.849Z,158832.41
2022-09-20T06:32:56.522Z,158832.41
2022-09-20T06:35:28.120Z,158820.41
2022-09-20T06:38:38.314Z,158831.03
2022-09-20T06:41:24.598Z,158829.72
2022-09-20T06:43:52.099Z,158845.69
2022-09-20T06:46:19.663Z,158869.72
2022-09-20T06:48:47.446Z,158885.72
2022-09-20T06:51:14.662Z,158877.72
2022-09-20T06:53:42.522Z,158873.69
2022-09-20T06:56:15.349Z,158880.38
2022-09-20T06:58:43.016Z,158891.06
2022-09-20T07:01:10.311Z,158895.03
2022-09-20T07:03:38.110Z,158897.72
2022-09-20T07:06:05.915Z,158919.03
2022-09-20T07:08:33.324Z,158925.72
2022-09-20T07:11:09.921Z,158943.03
2022-09-20T07:13:37.718Z,158932.38
2022-09-20T07:16:07.112Z,158964.34
2022-09-20T07:18:35.099Z,158955.03
2022-09-20T07:21:03.350Z,158968.38
2022-09-20T07:23:31.328Z,158980.38
2022-09-20T07:26:00.895Z,158993.72
2022-09-20T07:28:30.078Z,159013.69
2022-09-20T07:30:57.922Z,159036.41
2022-09-20T07:33:26.715Z,159027.03
2022-09-20T07:35:55.463Z,159051.06
2022-09-20T07:38:23.300Z,159037.72
2022-09-20T07:41:02.436Z,159040.38
2022-09-20T07:43:31.219Z,159049.69
2022-09-20T07:46:00.079Z,159075.03
2022-09-20T07:48:30.651Z,159069.69
2022-09-20T07:51:08.883Z,159085.75
2022-09-20T07:53:37.644Z,159103.06
2022-09-20T07:56:12.554Z,159128.41
2022-09-20T07:58:40.436Z,159139.06
2022-09-20T08:01:10.368Z,159208.44
2022-09-20T08:03:38.570Z,159197.78
2022-09-20T08:06:11.892Z,159213.78
2022-09-20T08:08:40.872Z,159223.09
2022-09-20T08:11:10.731Z,159227.13
2022-09-20T08:16:28.761Z,159304.56
2022-09-20T08:19:01.405Z,159308.53
2022-09-20T08:21:32.444Z,159309.88
2022-09-20T08:24:00.398Z,159328.56
2022-09-20T08:26:31.760Z,159312.56
2022-09-20T08:29:00.419Z,159313.91
2022-09-20T08:31:32.471Z,159305.91
2022-09-20T08:34:03.826Z,159343.25
2022-09-20T08:36:36.433Z,159343.25
2022-09-20T08:41:57.856Z,159345.94
2022-09-20T08:44:35.044Z,159347.28
2022-09-20T08:47:21.630Z,159320.56
2022-09-20T08:49:56.370Z,159352.56
2022-09-20T08:52:37.020Z,159391.31
2022-09-20T08:55:17.906Z,159420.66
2022-09-20T08:57:56.916Z,159436.66
2022-09-20T09:00:30.926Z,159434.03
2022-09-20T09:03:04.119Z,159459.41
2022-09-20T09:05:36.693Z,159468.72
2022-09-20T09:08:16.374Z,159486.06
2022-09-20T09:10:54.183Z,159488.75
2022-09-20T09:13:25.170Z,159462.06
2022-09-20T09:16:00.348Z,159454.06
2022-09-20T09:18:33.103Z,159467.41
2022-09-20T09:21:04.317Z,159510.13
2022-09-20T09:23:41.476Z,159514.09
2022-09-20T09:26:22.576Z,159536.84
2022-09-20T09:29:09.360Z,159567.53
2022-09-20T09:31:38.584Z,159563.50
2022-09-20T09:34:23.501Z,159560.84
2022-09-20T09:36:50.895Z,159582.22
2022-09-20T09:39:38.461Z,159600.94
2022-09-20T09:42:23.948Z,159628.97
2022-09-20T09:44:51.640Z,159663.72
2022-09-20T09:47:37.546Z,159734.56
2022-09-20T09:50:09.686Z,159742.56
2022-09-20T09:52:37.594Z,159738.53
2022-09-20T09:55:06.018Z,159714.50
2022-09-20T09:57:49.755Z,159723.84
2022-09-20T10:00:22.255Z,159747.94
2022-09-20T10:03:17.179Z,159778.63
2022-09-20T10:06:05.637Z,159833.44
2022-09-20T10:09:11.528Z,159857.47
2022-09-20T10:12:03.618Z,159896.25
2022-09-20T10:14:54.345Z,159922.94
2022-09-20T10:17:52.866Z,159939.00
2022-09-20T10:20:45.079Z,159977.75
2022-09-20T10:23:45.128Z,160017.88
2022-09-20T10:26:30.318Z,160041.91
2022-09-20T10:29:09.945Z,160060.72
2022-09-20T10:31:47.521Z,160083.44
2022-09-20T10:34:52.488Z,160044.63
2022-09-20T10:37:34.079Z,160036.56
2022-09-20T10:40:57.336Z,160048.63
2022-09-20T10:44:05.366Z,160075.41
2022-09-20T10:46:58.535Z,160124.88
2022-09-20T10:49:51.928Z,160207.81
2022-09-20T10:52:35.265Z,160256.00
2022-09-20T10:55:40.697Z,160356.31
2022-09-20T10:58:30.602Z,160403.16
2022-09-20T11:01:07.181Z,160436.63
2022-09-20T11:03:39.374Z,160412.56
2022-09-20T11:06:31.713Z,160329.53
2022-09-20T11:09:00.281Z,160310.78
2022-09-20T11:11:50.068Z,160293.44
2022-09-20T11:14:23.460Z,160313.50
2022-09-20T11:17:09.619Z,160341.59
2022-09-20T11:19:56.619Z,160337.56
2022-09-20T11:22:40.278Z,160325.50
2022-09-20T11:25:44.619Z,160403.16
2022-09-20T11:28:32.110Z,160395.16
2022-09-20T11:31:20.451Z,160357.66
2022-09-20T11:33:57.830Z,160288.06
2022-09-20T11:36:33.583Z,160233.22
2022-09-20T11:39:05.403Z,160247.91
2022-09-20T11:41:33.327Z,160256.00
2022-09-20T11:44:07.167Z,160253.28
2022-09-20T11:46:41.750Z,160215.84
2022-09-20T11:49:24.184Z,160258.63
2022-09-20T11:52:07.229Z,160300.13
2022-09-20T11:55:01.747Z,160364.34
2022-09-20T11:57:29.975Z,160423.25
2022-09-20T12:00:01.876Z,160452.69
2022-09-20T12:02:53.972Z,160454.06
2022-09-20T12:05:33.722Z,160408.53
2022-09-20T12:08:08.734Z,160405.88
2022-09-20T12:10:38.620Z,160381.75
2022-09-20T12:13:15.829Z,160365.66
2022-09-20T12:15:43.345Z,160336.25
2022-09-20T12:18:31.327Z,160302.78
2022-09-20T12:21:16.289Z,160301.44
2022-09-20T12:23:44.867Z,160300.13
2022-09-20T12:26:41.337Z,160289.41
2022-09-20T12:29:27.164Z,160282.69
2022-09-20T12:31:56.473Z,160284.09
2022-09-20T12:34:27.349Z,160278.72
2022-09-20T12:36:57.734Z,160256.00
2022-09-20T12:39:29.955Z,160246.59
2022-09-20T12:42:01.483Z,160266.66
2022-09-20T12:44:42.193Z,160262.63
2022-09-20T12:47:12.494Z,160235.91
2022-09-20T12:50:00.591Z,160238.56
2022-09-20T12:52:57.302Z,160226.50
2022-09-20T12:55:56.453Z,160210.47
2022-09-20T12:58:45.649Z,160202.47
2022-09-20T13:01:27.510Z,160171.72
2022-09-20T13:04:33.066Z,160157.00
2022-09-20T13:07:42.739Z,160114.16
2022-09-20T13:10:24.468Z,160068.72
2022-09-20T13:13:00.904Z,160015.16
2022-09-20T13:15:28.942Z,159939.00
2022-09-20T13:17:57.953Z,159853.50
2022-09-20T13:20:31.623Z,159771.94
2022-09-20T13:23:00.536Z,159702.47
2022-09-20T13:25:28.738Z,159646.31
2022-09-20T13:28:19.170Z,159600.94
2022-09-20T13:30:48.951Z,159596.91
2022-09-20T13:33:17.811Z,159603.59
2022-09-20T13:35:48.409Z,159588.91
2022-09-20T13:38:22.690Z,159595.59
2022-09-20T13:40:51.227Z,159606.25
2022-09-20T13:43:37.271Z,159607.63
2022-09-20T13:46:10.106Z,159583.56
2022-09-20T13:48:37.852Z,159584.88
2022-09-20T13:51:25.640Z,159552.84
2022-09-20T13:53:53.498Z,159587.56
2022-09-20T13:56:28.744Z,159592.94
2022-09-20T13:58:59.214Z,159632.97
2022-09-20T14:01:34.916Z,159657.03
2022-09-20T14:04:07.039Z,159658.34
2022-09-20T14:06:35.013Z,159645.00
2022-09-20T14:09:10.468Z,159650.34
2022-09-20T14:11:39.591Z,159666.38
2022-09-20T14:14:08.165Z,159702.47
2022-09-20T14:16:39.185Z,159721.19
2022-09-20T14:19:10.083Z,159755.94
2022-09-20T14:21:37.812Z,159778.63
2022-09-20T14:24:25.674Z,159812.06
2022-09-20T14:27:18.027Z,159860.13
2022-09-20T14:29:46.680Z,159901.56
2022-09-20T14:32:17.683Z,159881.56
2022-09-20T14:35:02.244Z,159849.47
2022-09-20T14:37:48.175Z,159706.50
2022-09-20T14:40:31.888Z,159626.28
2022-09-20T14:43:02.172Z,159571.56
2022-09-20T14:45:32.580Z,159508.81
2022-09-20T14:48:10.773Z,159452.72
2022-09-20T14:50:46.506Z,159466.06
2022-09-20T14:53:26.997Z,159504.78
2022-09-20T14:56:09.402Z,159498.09
2022-09-20T14:58:56.980Z,159476.72
2022-09-20T15:01:26.125Z,159476.72
2022-09-20T15:03:54.129Z,159458.03
2022-09-20T15:06:21.777Z,159447.38
2022-09-20T15:08:49.185Z,159451.34
2022-09-20T15:11:20.071Z,159452.72
2022-09-20T15:13:47.460Z,159494.13
2022-09-20T15:16:17.851Z,159499.41
2022-09-20T15:18:45.540Z,159507.44
2022-09-20T15:21:13.119Z,159507.44
2022-09-20T15:23:40.721Z,159526.13
2022-09-20T15:26:10.729Z,159483.41
2022-09-20T15:28:38.244Z,159464.72
2022-09-20T15:31:05.579Z,159470.06
2022-09-20T15:33:33.780Z,159475.41
2022-09-20T15:36:04.542Z,159490.09
2022-09-20T15:39:13.248Z,159468.72
2022-09-20T15:42:46.191Z,159496.78
2022-09-20T15:51:36.540Z,159498.09
2022-09-20T15:54:11.304Z,159503.44
2022-09-20T15:56:40.707Z,159495.44
2022-09-20T16:18:20.668Z,159488.75
2022-09-20T16:20:50.236Z,159447.38
2022-09-20T16:23:20.935Z,159454.06
2022-09-20T16:25:53.171Z,159462.06
2022-09-20T16:28:21.122Z,159455.38
2022-09-20T16:30:57.243Z,159450.03
2022-09-20T16:33:25.621Z,159462.06
2022-09-20T16:35:53.373Z,159448.69
2022-09-20T16:38:26.919Z,159419.34
2022-09-20T16:40:55.984Z,159416.69
2022-09-20T16:43:26.407Z,159423.38
2022-09-20T16:46:01.291Z,159415.31
2022-09-20T16:48:31.444Z,159407.31
2022-09-20T16:50:59.287Z,159401.97
2022-09-20T16:56:39.704Z,159403.34
2022-09-20T16:59:08.242Z,159399.31
2022-09-20T17:01:37.153Z,159400.63
2022-09-20T17:04:05.941Z,159407.31
2022-09-20T17:06:38.218Z,159408.63
2022-09-20T17:09:06.884Z,159410.00
2022-09-20T17:11:38.619Z,159408.63
2022-09-20T17:14:07.103Z,159408.63
2022-09-20T17:16:36.883Z,159415.31
2022-09-20T17:19:13.349Z,159415.31
2022-09-20T17:21:49.416Z,159419.34
2022-09-20T17:56:24.243Z,159289.91
2022-09-20T17:58:51.934Z,159300.53
2022-09-20T18:01:23.036Z,159301.88
2022-09-20T18:03:51.237Z,159285.88
2022-09-20T18:06:27.283Z,159276.56
2022-09-20T18:09:06.855Z,159264.47
2022-09-20T18:11:38.496Z,159244.44
2022-09-20T18:14:11.053Z,159221.78
2022-09-20T18:16:39.741Z,159189.75
2022-09-20T18:19:09.394Z,159173.75
2022-09-20T18:21:40.057Z,159165.75
2022-09-20T18:24:13.215Z,159155.06
2022-09-20T18:26:42.230Z,159141.75
2022-09-20T18:29:18.498Z,159121.75
2022-09-20T18:31:55.002Z,159115.06
2022-09-20T18:34:31.968Z,159096.38
2022-09-20T18:37:01.527Z,159093.72
2022-09-20T18:39:37.885Z,159085.75
2022-09-20T18:42:09.698Z,159077.69
2022-09-20T18:44:44.887Z,159071.06
2022-09-20T18:47:12.813Z,159061.69
2022-09-20T18:49:42.035Z,159051.06
2022-09-20T18:52:11.086Z,159048.34
2022-09-20T18:54:41.244Z,159049.69
2022-09-20T18:57:10.855Z,159040.38
2022-09-20T18:59:38.928Z,159040.38
2022-09-20T19:02:32.965Z,159036.41
2022-09-20T19:05:13.118Z,159033.69
2022-09-20T19:08:06.315Z,159024.38
2022-09-20T19:10:46.127Z,159021.69
2022-09-20T19:13:43.178Z,159016.38
2022-09-20T19:16:11.692Z,159013.69
2022-09-20T19:18:59.028Z,159011.03
2022-09-20T19:21:45.679Z,159021.69
2022-09-20T19:24:13.543Z,159024.38
2022-09-20T19:26:42.713Z,159021.69
2022-09-20T19:29:29.216Z,159036.41
2022-09-20T19:31:59.684Z,159028.34
2022-09-20T19:34:32.340Z,159048.34
2022-09-20T19:37:22.811Z,159036.41
2022-09-20T19:40:10.162Z,159059.06
2022-09-20T19:42:53.513Z,159061.69
2022-09-20T19:45:32.845Z,159071.06
2022-09-20T19:48:20.548Z,159077.69
2022-09-20T19:50:55.657Z,159076.38
2022-09-20T19:53:26.475Z,159084.38
2022-09-20T19:56:01.897Z,159079.06
2022-09-20T19:58:30.550Z,159076.38
2022-09-20T20:00:59.238Z,159080.38
2022-09-20T20:03:29.642Z,159083.03
2022-09-20T20:06:14.755Z,159081.72
2022-09-20T20:09:20.233Z,159087.06
2022-09-20T20:11:57.356Z,159087.06
2022-09-20T20:14:52.567Z,159089.72
2022-09-20T20:17:58.379Z,159095.06
2022-09-20T20:20:46.363Z,159085.75
2022-09-20T20:23:48.057Z,159084.38
2022-09-20T20:26:22.468Z,159073.72
2022-09-20T20:28:52.608Z,159065.72
2022-09-20T20:31:21.274Z,159059.06
2022-09-20T20:33:49.848Z,159056.34
2022-09-20T20:36:18.203Z,159040.38
2022-09-20T20:38:49.945Z,159039.03
2022-09-20T20:41:20.432Z,159033.69
2022-09-20T20:43:50.737Z,159031.06
2022-09-20T20:46:18.851Z,159008.38
2022-09-20T20:48:48.395Z,159001.72
2022-09-20T20:51:19.015Z,158976.38
2022-09-20T20:53:52.435Z,158973.72
2022-09-20T20:56:20.985Z,158967.06
2022-09-20T20:58:50.106Z,158944.41
2022-09-20T21:01:23.426Z,158939.06
2022-09-20T21:03:53.031Z,158939.06
2022-09-20T21:06:24.377Z,158929.69
2022-09-20T21:08:53.142Z,158904.38
2022-09-20T21:11:33.357Z,158896.41
2022-09-20T21:14:03.350Z,158889.72
2022-09-20T21:16:35.699Z,158876.41
2022-09-20T21:19:06.071Z,158855.06
2022-09-20T21:21:37.352Z,158864.38
2022-09-20T21:24:08.156Z,158849.72
2022-09-20T21:26:37.802Z,158837.72
2022-09-20T21:29:08.438Z,158832.41
2022-09-20T21:31:39.522Z,158816.38
2022-09-20T21:34:12.691Z,158805.75
2022-09-20T21:36:44.359Z,158807.06
2022-09-20T21:39:13.354Z,158793.75
2022-09-20T21:41:41.315Z,158780.41
2022-09-20T21:44:10.865Z,158777.72
2022-09-20T21:46:41.602Z,158775.03
2022-09-20T21:49:12.412Z,158763.06
2022-09-20T21:51:42.777Z,158755.06
2022-09-20T21:54:11.289Z,158763.06
2022-09-20T21:56:40.787Z,158755.06
2022-09-20T21:59:10.136Z,158756.41
2022-09-20T22:01:40.581Z,158745.72
2022-09-20T22:04:10.302Z,158745.72
2022-09-20T22:06:43.556Z,158744.38
2022-09-20T22:09:14.192Z,158719.06
2022-09-20T22:11:46.058Z,158747.03
2022-09-20T22:14:15.808Z,158736.41
2022-09-20T22:16:45.270Z,158728.41
2022-09-20T22:19:16.783Z,158747.03
2022-09-20T22:21:48.099Z,158737.72
2022-09-20T22:24:17.023Z,158768.34
2022-09-20T22:26:49.925Z,158772.38
2022-09-20T22:29:19.680Z,158775.03
2022-09-20T22:31:50.602Z,158772.38
2022-09-20T22:34:20.602Z,158777.72
2022-09-20T22:36:48.927Z,158792.41
2022-09-20T22:39:17.518Z,158807.06
2022-09-20T22:41:48.301Z,158811.09
2022-09-20T22:44:16.922Z,158829.72
2022-09-20T22:46:45.157Z,158823.06
2022-09-20T22:49:12.922Z,158817.75
2022-09-20T22:51:41.792Z,158807.06
2022-09-20T22:54:13.397Z,158795.06
2022-09-20T22:56:42.943Z,158803.06
2022-09-20T22:59:13.420Z,158805.75
2022-09-20T23:01:47.443Z,158800.41
2022-09-20T23:04:18.084Z,158792.41
2022-09-20T23:06:55.384Z,158785.75
2022-09-20T23:09:26.155Z,158795.06
2022-09-20T23:11:54.133Z,158792.41
2022-09-20T23:14:23.064Z,158777.72
2022-09-20T23:16:51.574Z,158772.38
2022-09-20T23:19:19.803Z,158768.34
2022-09-20T23:21:47.938Z,158775.03
2022-09-20T23:24:16.660Z,158776.41
2022-09-20T23:26:45.388Z,158792.41
2022-09-20T23:29:16.039Z,158797.75
2022-09-20T23:31:46.881Z,158797.75
2022-09-20T23:34:17.550Z,158785.75
2022-09-20T23:36:48.450Z,158799.09
2022-09-20T23:39:16.370Z,158812.41
2022-09-20T23:41:49.993Z,158823.06
2022-09-20T23:44:20.434Z,158817.75
2022-09-20T23:46:48.980Z,158815.06
2022-09-20T23:49:18.674Z,158827.06
2022-09-20T23:51:47.497Z,158825.75
2022-09-20T23:54:15.278Z,158832.41
2022-09-20T23:56:43.575Z,158837.72
2022-09-20T23:59:12.186Z,158856.41
